sensor_id;sensor_type;location;lat;lon;timestamp;P1;durP1;ratioP1;P2;durP2;ratioP2
2061;SDS011;11070;51.336;12.340;2022-08-21T00:02:25;43.75;;;36.05;;
2061;SDS011;11070;51.336;12.340;2022-08-21T00:04:51;41.60;;;35.85;;
2061;SDS011;11070;51.336;12.340;2022-08-21T00:07:20;37.60;;;33.10;;
2061;SDS011;11070;51.336;12.340;2022-08-21T00:09:46;41.40;;;35.58;;
2061;SDS011;11070;51.336;12.340;2022-08-21T00:12:12;39.55;;;34.60;;
2061;SDS011;11070;51.336;12.340;2022-08-21T00:14:38;35.85;;;31.30;;
2061;SDS011;11070;51.336;12.340;2022-08-21T00:17:05;37.78;;;32.40;;
2061;SDS011;11070;51.336;12.340;2022-08-21T00:19:31;34.17;;;30.58;;
2061;SDS011;11070;51.336;12.340;2022-08-21T00:21:57;39.08;;;32.70;;
2061;SDS011;11070;51.336;12.340;2022-08-21T00:24:23;34.47;;;30.50;;
2061;SDS011;11070;51.336;12.340;2022-08-21T00:26:50;35.38;;;31.60;;
2061;SDS011;11070;51.336;12.340;2022-08-21T00:29:16;31.85;;;28.45;;
2061;SDS011;11070;51.336;12.340;2022-08-21T00:31:43;32.65;;;29.15;;
2061;SDS011;11070;51.336;12.340;2022-08-21T00:34:09;33.17;;;28.77;;
2061;SDS011;11070;51.336;12.340;2022-08-21T00:36:36;31.42;;;28.13;;
2061;SDS011;11070;51.336;12.340;2022-08-21T00:39:03;32.00;;;26.30;;
2061;SDS011;11070;51.336;12.340;2022-08-21T00:41:30;30.15;;;27.15;;
2061;SDS011;11070;51.336;12.340;2022-08-21T00:43:56;29.63;;;26.50;;
2061;SDS011;11070;51.336;12.340;2022-08-21T00:46:21;27.00;;;24.10;;
2061;SDS011;11070;51.336;12.340;2022-08-21T00:48:47;27.87;;;25.07;;
2061;SDS011;11070;51.336;12.340;2022-08-21T00:51:14;26.77;;;24.10;;
2061;SDS011;11070;51.336;12.340;2022-08-21T00:53:48;26.33;;;23.33;;
2061;SDS011;11070;51.336;12.340;2022-08-21T00:56:19;25.65;;;22.95;;
2061;SDS011;11070;51.336;12.340;2022-08-21T00:58:46;26.55;;;23.70;;
2061;SDS011;11070;51.336;12.340;2022-08-21T01:01:13;27.65;;;24.85;;
2061;SDS011;11070;51.336;12.340;2022-08-21T01:03:39;26.23;;;23.52;;
2061;SDS011;11070;51.336;12.340;2022-08-21T01:06:05;25.30;;;22.73;;
2061;SDS011;11070;51.336;12.340;2022-08-21T01:08:32;26.20;;;23.50;;
2061;SDS011;11070;51.336;12.340;2022-08-21T01:10:59;26.95;;;23.98;;
2061;SDS011;11070;51.336;12.340;2022-08-21T01:13:26;26.13;;;23.33;;
2061;SDS011;11070;51.336;12.340;2022-08-21T01:15:55;28.23;;;24.33;;
2061;SDS011;11070;51.336;12.340;2022-08-21T01:18:24;24.80;;;22.30;;
2061;SDS011;11070;51.336;12.340;2022-08-21T01:21:12;22.23;;;20.05;;
2061;SDS011;11070;51.336;12.340;2022-08-21T01:23:44;22.60;;;20.15;;
2061;SDS011;11070;51.336;12.340;2022-08-21T01:26:13;22.52;;;20.33;;
2061;SDS011;11070;51.336;12.340;2022-08-21T01:28:44;25.42;;;22.73;;
2061;SDS011;11070;51.336;12.340;2022-08-21T01:31:14;23.92;;;21.58;;
2061;SDS011;11070;51.336;12.340;2022-08-21T01:33:42;22.70;;;20.30;;
2061;SDS011;11070;51.336;12.340;2022-08-21T01:36:08;22.07;;;19.83;;
2061;SDS011;11070;51.336;12.340;2022-08-21T01:38:34;23.27;;;20.87;;
2061;SDS011;11070;51.336;12.340;2022-08-21T01:40:59;24.67;;;22.13;;
2061;SDS011;11070;51.336;12.340;2022-08-21T01:43:25;24.17;;;21.67;;
2061;SDS011;11070;51.336;12.340;2022-08-21T01:45:51;22.53;;;20.10;;
2061;SDS011;11070;51.336;12.340;2022-08-21T01:48:17;23.03;;;20.77;;
2061;SDS011;11070;51.336;12.340;2022-08-21T01:50:42;25.50;;;23.00;;
2061;SDS011;11070;51.336;12.340;2022-08-21T01:53:08;24.93;;;22.33;;
2061;SDS011;11070;51.336;12.340;2022-08-21T01:55:33;26.47;;;22.83;;
2061;SDS011;11070;51.336;12.340;2022-08-21T01:57:59;25.00;;;22.50;;
2061;SDS011;11070;51.336;12.340;2022-08-21T02:00:25;24.03;;;21.63;;
2061;SDS011;11070;51.336;12.340;2022-08-21T02:02:51;23.10;;;20.70;;
2061;SDS011;11070;51.336;12.340;2022-08-21T02:05:17;23.30;;;21.02;;
2061;SDS011;11070;51.336;12.340;2022-08-21T02:07:48;22.33;;;20.00;;
2061;SDS011;11070;51.336;12.340;2022-08-21T02:10:18;24.73;;;21.52;;
2061;SDS011;11070;51.336;12.340;2022-08-21T02:12:51;25.05;;;20.85;;
2061;SDS011;11070;51.336;12.340;2022-08-21T02:15:17;24.33;;;21.73;;
2061;SDS011;11070;51.336;12.340;2022-08-21T02:17:47;23.25;;;20.85;;
2061;SDS011;11070;51.336;12.340;2022-08-21T02:20:20;22.23;;;18.95;;
2061;SDS011;11070;51.336;12.340;2022-08-21T02:22:49;19.70;;;17.65;;
2061;SDS011;11070;51.336;12.340;2022-08-21T02:25:15;20.07;;;17.80;;
2061;SDS011;11070;51.336;12.340;2022-08-21T02:27:43;20.88;;;18.33;;
2061;SDS011;11070;51.336;12.340;2022-08-21T02:30:13;20.13;;;16.95;;
2061;SDS011;11070;51.336;12.340;2022-08-21T02:32:41;17.80;;;16.00;;
2061;SDS011;11070;51.336;12.340;2022-08-21T02:35:07;18.40;;;16.60;;
2061;SDS011;11070;51.336;12.340;2022-08-21T02:37:41;19.33;;;17.25;;
2061;SDS011;11070;51.336;12.340;2022-08-21T02:40:12;18.65;;;16.75;;
2061;SDS011;11070;51.336;12.340;2022-08-21T02:42:38;18.80;;;16.90;;
2061;SDS011;11070;51.336;12.340;2022-08-21T02:45:05;17.48;;;15.65;;
2061;SDS011;11070;51.336;12.340;2022-08-21T02:47:31;17.65;;;15.65;;
2061;SDS011;11070;51.336;12.340;2022-08-21T02:49:57;17.50;;;15.80;;
2061;SDS011;11070;51.336;12.340;2022-08-21T02:52:22;15.80;;;14.20;;
2061;SDS011;11070;51.336;12.340;2022-08-21T02:54:49;16.33;;;14.73;;
2061;SDS011;11070;51.336;12.340;2022-08-21T02:57:14;15.77;;;14.07;;
2061;SDS011;11070;51.336;12.340;2022-08-21T02:59:40;15.43;;;13.83;;
2061;SDS011;11070;51.336;12.340;2022-08-21T03:02:06;14.33;;;12.93;;
2061;SDS011;11070;51.336;12.340;2022-08-21T03:04:31;15.67;;;13.90;;
2061;SDS011;11070;51.336;12.340;2022-08-21T03:06:57;46.17;;;13.70;;
2061;SDS011;11070;51.336;12.340;2022-08-21T03:09:23;13.60;;;12.20;;
2061;SDS011;11070;51.336;12.340;2022-08-21T03:11:49;15.20;;;12.93;;
2061;SDS011;11070;51.336;12.340;2022-08-21T03:14:16;14.20;;;12.05;;
2061;SDS011;11070;51.336;12.340;2022-08-21T03:16:42;14.40;;;13.00;;
2061;SDS011;11070;51.336;12.340;2022-08-21T03:19:09;15.85;;;13.20;;
2061;SDS011;11070;51.336;12.340;2022-08-21T03:21:34;14.10;;;12.63;;
2061;SDS011;11070;51.336;12.340;2022-08-21T03:24:00;15.60;;;13.57;;
2061;SDS011;11070;51.336;12.340;2022-08-21T03:26:26;15.67;;;13.20;;
2061;SDS011;11070;51.336;12.340;2022-08-21T03:28:52;16.50;;;13.53;;
2061;SDS011;11070;51.336;12.340;2022-08-21T03:31:17;13.13;;;11.87;;
2061;SDS011;11070;51.336;12.340;2022-08-21T03:33:43;12.70;;;11.00;;
2061;SDS011;11070;51.336;12.340;2022-08-21T03:36:09;12.63;;;11.37;;
2061;SDS011;11070;51.336;12.340;2022-08-21T03:38:37;13.00;;;11.80;;
2061;SDS011;11070;51.336;12.340;2022-08-21T03:41:03;11.75;;;10.48;;
2061;SDS011;11070;51.336;12.340;2022-08-21T03:43:30;13.57;;;10.82;;
2061;SDS011;11070;51.336;12.340;2022-08-21T03:45:57;12.40;;;10.38;;
2061;SDS011;11070;51.336;12.340;2022-08-21T03:48:25;11.27;;;10.18;;
2061;SDS011;11070;51.336;12.340;2022-08-21T03:50:51;10.90;;;9.80;;
2061;SDS011;11070;51.336;12.340;2022-08-21T03:53:18;11.85;;;10.65;;
2061;SDS011;11070;51.336;12.340;2022-08-21T03:55:48;11.87;;;10.67;;
2061;SDS011;11070;51.336;12.340;2022-08-21T03:58:16;10.82;;;9.73;;
2061;SDS011;11070;51.336;12.340;2022-08-21T04:00:47;12.00;;;10.77;;
2061;SDS011;11070;51.336;12.340;2022-08-21T04:03:16;11.90;;;9.90;;
2061;SDS011;11070;51.336;12.340;2022-08-21T04:05:42;12.02;;;9.98;;
2061;SDS011;11070;51.336;12.340;2022-08-21T04:08:10;12.82;;;11.43;;
2061;SDS011;11070;51.336;12.340;2022-08-21T04:10:37;11.30;;;10.20;;
2061;SDS011;11070;51.336;12.340;2022-08-21T04:13:04;11.25;;;10.15;;
2061;SDS011;11070;51.336;12.340;2022-08-21T04:15:30;10.05;;;9.13;;
2061;SDS011;11070;51.336;12.340;2022-08-21T04:17:56;10.50;;;9.60;;
2061;SDS011;11070;51.336;12.340;2022-08-21T04:20:21;9.97;;;9.00;;
2061;SDS011;11070;51.336;12.340;2022-08-21T04:22:49;10.07;;;9.00;;
2061;SDS011;11070;51.336;12.340;2022-08-21T04:25:15;9.93;;;8.95;;
2061;SDS011;11070;51.336;12.340;2022-08-21T04:27:41;8.55;;;7.75;;
2061;SDS011;11070;51.336;12.340;2022-08-21T04:30:07;8.77;;;7.97;;
2061;SDS011;11070;51.336;12.340;2022-08-21T04:32:34;9.90;;;8.93;;
2061;SDS011;11070;51.336;12.340;2022-08-21T04:35:03;10.98;;;7.90;;
2061;SDS011;11070;51.336;12.340;2022-08-21T04:37:31;9.45;;;8.07;;
2061;SDS011;11070;51.336;12.340;2022-08-21T04:39:57;9.43;;;7.22;;
2061;SDS011;11070;51.336;12.340;2022-08-21T04:42:26;8.13;;;7.30;;
2061;SDS011;11070;51.336;12.340;2022-08-21T04:44:53;7.90;;;7.15;;
2061;SDS011;11070;51.336;12.340;2022-08-21T04:47:20;7.60;;;6.90;;
2061;SDS011;11070;51.336;12.340;2022-08-21T04:49:46;9.77;;;7.20;;
2061;SDS011;11070;51.336;12.340;2022-08-21T04:52:13;7.63;;;7.00;;
2061;SDS011;11070;51.336;12.340;2022-08-21T04:54:42;7.97;;;7.18;;
2061;SDS011;11070;51.336;12.340;2022-08-21T04:57:10;7.20;;;6.57;;
2061;SDS011;11070;51.336;12.340;2022-08-21T04:59:46;9.50;;;7.55;;
2061;SDS011;11070;51.336;12.340;2022-08-21T05:02:14;8.40;;;6.65;;
2061;SDS011;11070;51.336;12.340;2022-08-21T05:04:49;7.13;;;6.50;;
2061;SDS011;11070;51.336;12.340;2022-08-21T05:07:22;8.60;;;7.53;;
2061;SDS011;11070;51.336;12.340;2022-08-21T05:09:51;7.40;;;6.70;;
2061;SDS011;11070;51.336;12.340;2022-08-21T05:12:18;7.95;;;6.85;;
2061;SDS011;11070;51.336;12.340;2022-08-21T05:14:44;8.03;;;6.73;;
2061;SDS011;11070;51.336;12.340;2022-08-21T05:17:10;7.87;;;7.03;;
2061;SDS011;11070;51.336;12.340;2022-08-21T05:19:36;11.00;;;8.15;;
2061;SDS011;11070;51.336;12.340;2022-08-21T05:22:01;7.73;;;7.10;;
2061;SDS011;11070;51.336;12.340;2022-08-21T05:24:30;7.80;;;7.00;;
2061;SDS011;11070;51.336;12.340;2022-08-21T05:26:56;7.60;;;6.90;;
2061;SDS011;11070;51.336;12.340;2022-08-21T05:29:21;7.83;;;6.87;;
2061;SDS011;11070;51.336;12.340;2022-08-21T05:31:47;8.23;;;7.50;;
2061;SDS011;11070;51.336;12.340;2022-08-21T05:34:14;7.60;;;6.80;;
2061;SDS011;11070;51.336;12.340;2022-08-21T05:36:43;9.27;;;7.78;;
2061;SDS011;11070;51.336;12.340;2022-08-21T05:39:09;7.55;;;6.82;;
2061;SDS011;11070;51.336;12.340;2022-08-21T05:41:35;8.70;;;7.10;;
2061;SDS011;11070;51.336;12.340;2022-08-21T05:44:00;7.97;;;7.27;;
2061;SDS011;11070;51.336;12.340;2022-08-21T05:46:26;7.33;;;6.73;;
2061;SDS011;11070;51.336;12.340;2022-08-21T05:48:52;8.10;;;7.30;;
2061;SDS011;11070;51.336;12.340;2022-08-21T05:51:17;8.23;;;6.70;;
2061;SDS011;11070;51.336;12.340;2022-08-21T05:53:43;9.17;;;7.03;;
2061;SDS011;11070;51.336;12.340;2022-08-21T05:56:12;7.97;;;7.00;;
2061;SDS011;11070;51.336;12.340;2022-08-21T05:58:45;9.65;;;7.28;;
2061;SDS011;11070;51.336;12.340;2022-08-21T06:01:15;7.65;;;6.95;;
2061;SDS011;11070;51.336;12.340;2022-08-21T06:03:41;8.53;;;6.70;;
2061;SDS011;11070;51.336;12.340;2022-08-21T06:06:07;7.38;;;6.72;;
2061;SDS011;11070;51.336;12.340;2022-08-21T06:08:34;8.93;;;7.35;;
2061;SDS011;11070;51.336;12.340;2022-08-21T06:11:00;6.80;;;6.10;;
2061;SDS011;11070;51.336;12.340;2022-08-21T06:13:28;8.15;;;6.50;;
2061;SDS011;11070;51.336;12.340;2022-08-21T06:16:00;7.32;;;6.20;;
2061;SDS011;11070;51.336;12.340;2022-08-21T06:18:27;6.72;;;6.13;;
2061;SDS011;11070;51.336;12.340;2022-08-21T06:20:52;6.87;;;6.17;;
2061;SDS011;11070;51.336;12.340;2022-08-21T06:23:18;6.53;;;5.70;;
2061;SDS011;11070;51.336;12.340;2022-08-21T06:25:44;6.27;;;5.43;;
2061;SDS011;11070;51.336;12.340;2022-08-21T06:28:10;6.57;;;6.07;;
2061;SDS011;11070;51.336;12.340;2022-08-21T06:30:36;7.55;;;6.80;;
2061;SDS011;11070;51.336;12.340;2022-08-21T06:33:04;8.38;;;7.57;;
2061;SDS011;11070;51.336;12.340;2022-08-21T06:35:31;9.27;;;6.82;;
2061;SDS011;11070;51.336;12.340;2022-08-21T06:37:57;7.67;;;6.97;;
2061;SDS011;11070;51.336;12.340;2022-08-21T06:40:23;7.40;;;6.22;;
2061;SDS011;11070;51.336;12.340;2022-08-21T06:42:48;7.33;;;6.63;;
2061;SDS011;11070;51.336;12.340;2022-08-21T06:45:14;7.10;;;6.33;;
2061;SDS011;11070;51.336;12.340;2022-08-21T06:47:40;6.43;;;5.83;;
2061;SDS011;11070;51.336;12.340;2022-08-21T06:50:06;6.40;;;5.57;;
2061;SDS011;11070;51.336;12.340;2022-08-21T06:52:33;6.97;;;6.05;;
2061;SDS011;11070;51.336;12.340;2022-08-21T06:55:00;5.93;;;5.43;;
2061;SDS011;11070;51.336;12.340;2022-08-21T06:57:26;6.60;;;5.50;;
2061;SDS011;11070;51.336;12.340;2022-08-21T06:59:52;6.00;;;5.33;;
2061;SDS011;11070;51.336;12.340;2022-08-21T07:02:20;8.23;;;5.83;;
2061;SDS011;11070;51.336;12.340;2022-08-21T07:04:47;5.85;;;5.35;;
2061;SDS011;11070;51.336;12.340;2022-08-21T07:07:13;6.80;;;5.53;;
2061;SDS011;11070;51.336;12.340;2022-08-21T07:09:39;6.60;;;5.43;;
2061;SDS011;11070;51.336;12.340;2022-08-21T07:12:05;5.68;;;5.10;;
2061;SDS011;11070;51.336;12.340;2022-08-21T07:14:31;6.33;;;5.70;;
2061;SDS011;11070;51.336;12.340;2022-08-21T07:16:57;7.97;;;5.47;;
2061;SDS011;11070;51.336;12.340;2022-08-21T07:19:22;5.23;;;4.73;;
2061;SDS011;11070;51.336;12.340;2022-08-21T07:21:48;5.00;;;4.50;;
2061;SDS011;11070;51.336;12.340;2022-08-21T07:24:14;5.63;;;5.13;;
2061;SDS011;11070;51.336;12.340;2022-08-21T07:26:39;5.20;;;4.70;;
2061;SDS011;11070;51.336;12.340;2022-08-21T07:29:05;6.18;;;4.00;;
2061;SDS011;11070;51.336;12.340;2022-08-21T07:31:31;5.23;;;4.60;;
2061;SDS011;11070;51.336;12.340;2022-08-21T07:33:57;4.80;;;4.37;;
2061;SDS011;11070;51.336;12.340;2022-08-21T07:36:23;4.95;;;4.60;;
2061;SDS011;11070;51.336;12.340;2022-08-21T07:38:49;7.83;;;5.40;;
2061;SDS011;11070;51.336;12.340;2022-08-21T07:41:19;5.27;;;4.80;;
2061;SDS011;11070;51.336;12.340;2022-08-21T07:43:47;5.72;;;4.07;;
2061;SDS011;11070;51.336;12.340;2022-08-21T07:46:13;5.00;;;4.30;;
2061;SDS011;11070;51.336;12.340;2022-08-21T07:48:39;5.10;;;4.43;;
2061;SDS011;11070;51.336;12.340;2022-08-21T07:51:06;8.05;;;4.53;;
2061;SDS011;11070;51.336;12.340;2022-08-21T07:53:34;6.57;;;5.10;;
2061;SDS011;11070;51.336;12.340;2022-08-21T07:56:01;7.10;;;4.00;;
2061;SDS011;11070;51.336;12.340;2022-08-21T07:58:28;4.10;;;3.70;;
2061;SDS011;11070;51.336;12.340;2022-08-21T08:00:54;4.53;;;4.10;;
2061;SDS011;11070;51.336;12.340;2022-08-21T08:03:20;8.97;;;4.00;;
2061;SDS011;11070;51.336;12.340;2022-08-21T08:05:46;4.50;;;4.10;;
2061;SDS011;11070;51.336;12.340;2022-08-21T08:08:12;3.97;;;3.58;;
2061;SDS011;11070;51.336;12.340;2022-08-21T08:10:38;6.97;;;3.60;;
2061;SDS011;11070;51.336;12.340;2022-08-21T08:13:04;4.93;;;4.20;;
2061;SDS011;11070;51.336;12.340;2022-08-21T08:15:30;4.28;;;3.75;;
2061;SDS011;11070;51.336;12.340;2022-08-21T08:17:56;3.60;;;3.13;;
2061;SDS011;11070;51.336;12.340;2022-08-21T08:20:26;5.40;;;3.20;;
2061;SDS011;11070;51.336;12.340;2022-08-21T08:22:52;4.63;;;3.15;;
2061;SDS011;11070;51.336;12.340;2022-08-21T08:25:18;4.65;;;3.50;;
2061;SDS011;11070;51.336;12.340;2022-08-21T08:27:45;3.03;;;2.83;;
2061;SDS011;11070;51.336;12.340;2022-08-21T08:30:12;4.30;;;3.40;;
2061;SDS011;11070;51.336;12.340;2022-08-21T08:32:39;4.53;;;3.05;;
2061;SDS011;11070;51.336;12.340;2022-08-21T08:35:05;3.43;;;2.63;;
2061;SDS011;11070;51.336;12.340;2022-08-21T08:37:32;4.53;;;3.10;;
2061;SDS011;11070;51.336;12.340;2022-08-21T08:39:59;3.10;;;2.80;;
2061;SDS011;11070;51.336;12.340;2022-08-21T08:42:32;2.67;;;2.47;;
2061;SDS011;11070;51.336;12.340;2022-08-21T08:47:32;6.20;;;2.60;;
2061;SDS011;11070;51.336;12.340;2022-08-21T08:50:16;4.10;;;2.77;;
2061;SDS011;11070;51.336;12.340;2022-08-21T08:52:52;3.23;;;2.20;;
2061;SDS011;11070;51.336;12.340;2022-08-21T08:55:26;4.20;;;2.80;;
2061;SDS011;11070;51.336;12.340;2022-08-21T08:57:59;4.83;;;2.70;;
2061;SDS011;11070;51.336;12.340;2022-08-21T09:00:28;3.90;;;2.60;;
2061;SDS011;11070;51.336;12.340;2022-08-21T09:02:55;3.40;;;2.70;;
2061;SDS011;11070;51.336;12.340;2022-08-21T09:05:23;7.43;;;2.87;;
2061;SDS011;11070;51.336;12.340;2022-08-21T09:10:57;7.70;;;3.03;;
2061;SDS011;11070;51.336;12.340;2022-08-21T09:16:14;5.67;;;2.40;;
2061;SDS011;11070;51.336;12.340;2022-08-21T09:27:07;3.40;;;3.03;;
2061;SDS011;11070;51.336;12.340;2022-08-21T09:29:36;3.57;;;2.20;;
2061;SDS011;11070;51.336;12.340;2022-08-21T09:32:08;3.00;;;2.47;;
2061;SDS011;11070;51.336;12.340;2022-08-21T09:34:55;4.83;;;2.50;;
2061;SDS011;11070;51.336;12.340;2022-08-21T09:40:38;2.10;;;2.00;;
2061;SDS011;11070;51.336;12.340;2022-08-21T09:43:25;2.77;;;1.93;;
2061;SDS011;11070;51.336;12.340;2022-08-21T09:46:01;3.77;;;2.37;;
2061;SDS011;11070;51.336;12.340;2022-08-21T09:48:43;4.73;;;2.97;;
2061;SDS011;11070;51.336;12.340;2022-08-21T09:51:16;3.30;;;3.00;;
2061;SDS011;11070;51.336;12.340;2022-08-21T09:53:45;4.50;;;2.17;;
2061;SDS011;11070;51.336;12.340;2022-08-21T09:56:27;4.60;;;2.37;;
2061;SDS011;11070;51.336;12.340;2022-08-21T09:59:45;2.60;;;2.30;;
2061;SDS011;11070;51.336;12.340;2022-08-21T10:04:53;2.80;;;2.10;;
2061;SDS011;11070;51.336;12.340;2022-08-21T10:07:36;3.37;;;2.90;;
2061;SDS011;11070;51.336;12.340;2022-08-21T10:15:18;2.50;;;2.30;;
2061;SDS011;11070;51.336;12.340;2022-08-21T10:18:04;3.03;;;2.30;;
2061;SDS011;11070;51.336;12.340;2022-08-21T10:20:44;2.03;;;1.83;;
2061;SDS011;11070;51.336;12.340;2022-08-21T10:23:37;2.30;;;2.10;;
2061;SDS011;11070;51.336;12.340;2022-08-21T10:26:06;2.47;;;2.30;;
2061;SDS011;11070;51.336;12.340;2022-08-21T10:31:46;3.03;;;2.20;;
2061;SDS011;11070;51.336;12.340;2022-08-21T10:34:25;2.60;;;1.80;;
2061;SDS011;11070;51.336;12.340;2022-08-21T10:39:51;5.43;;;2.20;;
2061;SDS011;11070;51.336;12.340;2022-08-21T10:42:38;3.80;;;2.07;;
2061;SDS011;11070;51.336;12.340;2022-08-21T10:48:15;3.53;;;2.00;;
2061;SDS011;11070;51.336;12.340;2022-08-21T10:50:54;2.17;;;2.03;;
2061;SDS011;11070;51.336;12.340;2022-08-21T10:53:37;3.40;;;2.00;;
2061;SDS011;11070;51.336;12.340;2022-08-21T10:58:46;2.50;;;1.90;;
2061;SDS011;11070;51.336;12.340;2022-08-21T11:01:37;2.50;;;2.00;;
2061;SDS011;11070;51.336;12.340;2022-08-21T11:04:21;5.07;;;2.80;;
2061;SDS011;11070;51.336;12.340;2022-08-21T11:07:18;2.80;;;1.90;;
2061;SDS011;11070;51.336;12.340;2022-08-21T11:09:47;2.40;;;2.20;;
2061;SDS011;11070;51.336;12.340;2022-08-21T11:12:23;3.00;;;1.90;;
2061;SDS011;11070;51.336;12.340;2022-08-21T11:15:07;3.90;;;2.40;;
2061;SDS011;11070;51.336;12.340;2022-08-21T11:23:42;2.43;;;2.23;;
2061;SDS011;11070;51.336;12.340;2022-08-21T11:42:48;2.53;;;2.00;;
2061;SDS011;11070;51.336;12.340;2022-08-21T11:45:35;3.23;;;2.17;;
2061;SDS011;11070;51.336;12.340;2022-08-21T11:48:12;2.77;;;2.27;;
2061;SDS011;11070;51.336;12.340;2022-08-21T11:50:39;3.37;;;2.50;;
2061;SDS011;11070;51.336;12.340;2022-08-21T11:58:30;2.80;;;2.27;;
2061;SDS011;11070;51.336;12.340;2022-08-21T12:01:12;3.20;;;2.23;;
2061;SDS011;11070;51.336;12.340;2022-08-21T12:03:53;2.67;;;2.10;;
2061;SDS011;11070;51.336;12.340;2022-08-21T12:06:33;3.30;;;2.37;;
2061;SDS011;11070;51.336;12.340;2022-08-21T12:11:50;3.53;;;2.20;;
2061;SDS011;11070;51.336;12.340;2022-08-21T12:14:41;3.10;;;2.30;;
2061;SDS011;11070;51.336;12.340;2022-08-21T12:17:09;3.90;;;2.80;;
2061;SDS011;11070;51.336;12.340;2022-08-21T12:19:59;3.60;;;2.33;;
2061;SDS011;11070;51.336;12.340;2022-08-21T12:22:37;6.60;;;2.50;;
2061;SDS011;11070;51.336;12.340;2022-08-21T12:25:06;4.60;;;2.67;;
2061;SDS011;11070;51.336;12.340;2022-08-21T12:30:23;6.27;;;2.50;;
2061;SDS011;11070;51.336;12.340;2022-08-21T12:32:56;3.53;;;2.33;;
2061;SDS011;11070;51.336;12.340;2022-08-21T12:35:25;3.60;;;2.50;;
2061;SDS011;11070;51.336;12.340;2022-08-21T12:38:06;2.77;;;2.30;;
2061;SDS011;11070;51.336;12.340;2022-08-21T12:41:06;2.93;;;2.60;;
2061;SDS011;11070;51.336;12.340;2022-08-21T12:43:46;4.57;;;2.60;;
2061;SDS011;11070;51.336;12.340;2022-08-21T12:46:29;3.00;;;2.40;;
2061;SDS011;11070;51.336;12.340;2022-08-21T12:49:14;2.87;;;2.47;;
2061;SDS011;11070;51.336;12.340;2022-08-21T12:54:45;2.80;;;2.30;;
2061;SDS011;11070;51.336;12.340;2022-08-21T12:57:21;3.97;;;2.40;;
2061;SDS011;11070;51.336;12.340;2022-08-21T12:59:53;2.93;;;2.17;;
2061;SDS011;11070;51.336;12.340;2022-08-21T13:02:22;2.93;;;2.67;;
2061;SDS011;11070;51.336;12.340;2022-08-21T13:04:53;3.13;;;2.63;;
2061;SDS011;11070;51.336;12.340;2022-08-21T13:07:29;2.73;;;2.30;;
2061;SDS011;11070;51.336;12.340;2022-08-21T13:09:59;2.80;;;2.53;;
2061;SDS011;11070;51.336;12.340;2022-08-21T13:12:30;4.17;;;2.50;;
2061;SDS011;11070;51.336;12.340;2022-08-21T13:14:58;4.57;;;2.40;;
2061;SDS011;11070;51.336;12.340;2022-08-21T13:17:27;5.13;;;2.50;;
2061;SDS011;11070;51.336;12.340;2022-08-21T13:20:05;4.60;;;2.97;;
2061;SDS011;11070;51.336;12.340;2022-08-21T13:22:44;3.70;;;2.80;;
2061;SDS011;11070;51.336;12.340;2022-08-21T13:25:13;2.93;;;2.60;;
2061;SDS011;11070;51.336;12.340;2022-08-21T13:27:41;4.63;;;2.90;;
2061;SDS011;11070;51.336;12.340;2022-08-21T13:30:10;2.50;;;2.30;;
2061;SDS011;11070;51.336;12.340;2022-08-21T13:32:43;3.40;;;2.77;;
2061;SDS011;11070;51.336;12.340;2022-08-21T13:37:39;3.70;;;2.90;;
2061;SDS011;11070;51.336;12.340;2022-08-21T13:40:06;3.30;;;2.40;;
2061;SDS011;11070;51.336;12.340;2022-08-21T13:42:35;4.10;;;2.80;;
2061;SDS011;11070;51.336;12.340;2022-08-21T13:45:03;3.10;;;2.43;;
2061;SDS011;11070;51.336;12.340;2022-08-21T13:47:36;2.60;;;2.40;;
2061;SDS011;11070;51.336;12.340;2022-08-21T13:50:01;3.07;;;2.83;;
2061;SDS011;11070;51.336;12.340;2022-08-21T13:52:28;2.60;;;2.40;;
2061;SDS011;11070;51.336;12.340;2022-08-21T13:54:55;2.83;;;2.20;;
2061;SDS011;11070;51.336;12.340;2022-08-21T13:59:51;2.27;;;2.07;;
2061;SDS011;11070;51.336;12.340;2022-08-21T14:02:18;3.20;;;2.33;;
2061;SDS011;11070;51.336;12.340;2022-08-21T14:04:59;3.00;;;2.80;;
2061;SDS011;11070;51.336;12.340;2022-08-21T14:07:34;4.20;;;2.77;;
2061;SDS011;11070;51.336;12.340;2022-08-21T14:10:07;3.63;;;2.40;;
2061;SDS011;11070;51.336;12.340;2022-08-21T14:12:44;4.50;;;2.40;;
2061;SDS011;11070;51.336;12.340;2022-08-21T14:15:22;3.03;;;2.73;;
2061;SDS011;11070;51.336;12.340;2022-08-21T14:17:50;9.33;;;2.73;;
2061;SDS011;11070;51.336;12.340;2022-08-21T14:20:27;2.93;;;2.50;;
2061;SDS011;11070;51.336;12.340;2022-08-21T14:22:58;2.90;;;2.70;;
2061;SDS011;11070;51.336;12.340;2022-08-21T14:27:55;3.17;;;2.47;;
2061;SDS011;11070;51.336;12.340;2022-08-21T14:30:45;2.93;;;2.63;;
2061;SDS011;11070;51.336;12.340;2022-08-21T14:33:15;4.13;;;2.70;;
2061;SDS011;11070;51.336;12.340;2022-08-21T14:35:52;3.50;;;3.20;;
2061;SDS011;11070;51.336;12.340;2022-08-21T14:38:19;3.67;;;2.50;;
2061;SDS011;11070;51.336;12.340;2022-08-21T14:40:48;2.63;;;2.43;;
2061;SDS011;11070;51.336;12.340;2022-08-21T14:43:16;3.20;;;2.90;;
2061;SDS011;11070;51.336;12.340;2022-08-21T14:45:44;4.43;;;2.50;;
2061;SDS011;11070;51.336;12.340;2022-08-21T14:48:10;2.73;;;2.53;;
2061;SDS011;11070;51.336;12.340;2022-08-21T14:50:36;3.10;;;2.90;;
2061;SDS011;11070;51.336;12.340;2022-08-21T14:53:02;3.43;;;2.90;;
2061;SDS011;11070;51.336;12.340;2022-08-21T14:55:29;3.60;;;2.77;;
2061;SDS011;11070;51.336;12.340;2022-08-21T14:57:55;3.10;;;2.80;;
2061;SDS011;11070;51.336;12.340;2022-08-21T15:00:23;3.17;;;2.27;;
2061;SDS011;11070;51.336;12.340;2022-08-21T15:02:50;5.00;;;2.83;;
2061;SDS011;11070;51.336;12.340;2022-08-21T15:05:17;3.10;;;2.80;;
2061;SDS011;11070;51.336;12.340;2022-08-21T15:07:43;3.30;;;2.80;;
2061;SDS011;11070;51.336;12.340;2022-08-21T15:10:09;3.23;;;2.93;;
2061;SDS011;11070;51.336;12.340;2022-08-21T15:12:36;3.73;;;2.73;;
2061;SDS011;11070;51.336;12.340;2022-08-21T15:15:04;2.77;;;2.47;;
2061;SDS011;11070;51.336;12.340;2022-08-21T15:17:30;3.00;;;2.40;;
2061;SDS011;11070;51.336;12.340;2022-08-21T15:19:56;2.20;;;2.10;;
2061;SDS011;11070;51.336;12.340;2022-08-21T15:22:22;3.13;;;2.83;;
2061;SDS011;11070;51.336;12.340;2022-08-21T15:24:47;2.80;;;2.60;;
2061;SDS011;11070;51.336;12.340;2022-08-21T15:27:13;3.30;;;2.43;;
2061;SDS011;11070;51.336;12.340;2022-08-21T15:29:41;3.17;;;2.90;;
2061;SDS011;11070;51.336;12.340;2022-08-21T15:32:20;3.00;;;2.57;;
2061;SDS011;11070;51.336;12.340;2022-08-21T15:34:49;2.83;;;2.63;;
2061;SDS011;11070;51.336;12.340;2022-08-21T15:37:18;4.27;;;3.53;;
2061;SDS011;11070;51.336;12.340;2022-08-21T15:39:44;2.80;;;2.60;;
2061;SDS011;11070;51.336;12.340;2022-08-21T15:42:10;5.90;;;2.73;;
2061;SDS011;11070;51.336;12.340;2022-08-21T15:44:38;5.30;;;2.63;;
2061;SDS011;11070;51.336;12.340;2022-08-21T15:47:05;5.10;;;2.87;;
2061;SDS011;11070;51.336;12.340;2022-08-21T15:49:31;4.00;;;2.80;;
2061;SDS011;11070;51.336;12.340;2022-08-21T15:51:56;3.53;;;2.80;;
2061;SDS011;11070;51.336;12.340;2022-08-21T15:54:23;5.67;;;2.40;;
2061;SDS011;11070;51.336;12.340;2022-08-21T15:56:49;3.00;;;2.80;;
2061;SDS011;11070;51.336;12.340;2022-08-21T15:59:20;3.20;;;2.67;;
2061;SDS011;11070;51.336;12.340;2022-08-21T16:01:48;6.70;;;2.90;;
2061;SDS011;11070;51.336;12.340;2022-08-21T16:04:18;3.10;;;2.70;;
2061;SDS011;11070;51.336;12.340;2022-08-21T16:06:49;4.30;;;2.50;;
2061;SDS011;11070;51.336;12.340;2022-08-21T16:09:15;3.30;;;2.47;;
2061;SDS011;11070;51.336;12.340;2022-08-21T16:11:41;3.73;;;2.50;;
2061;SDS011;11070;51.336;12.340;2022-08-21T16:14:08;6.03;;;2.83;;
2061;SDS011;11070;51.336;12.340;2022-08-21T16:16:36;6.20;;;2.67;;
2061;SDS011;11070;51.336;12.340;2022-08-21T16:19:02;4.70;;;2.77;;